sensor_id;sensor_type;location;lat;lon;timestamp;P1;durP1;ratioP1;P2;durP2;ratioP2
32329;SDS011;18807;52.434;13.238;2023-06-22T00:00:51;18.80;;;14.63;;
32329;SDS011;18807;52.434;13.238;2023-06-22T00:08:26;17.60;;;14.60;;
32329;SDS011;18807;52.434;13.238;2023-06-22T00:16:01;17.25;;;14.98;;
32329;SDS011;18807;52.434;13.238;2023-06-22T00:23:35;15.25;;;13.30;;
32329;SDS011;18807;52.434;13.238;2023-06-22T00:31:11;15.07;;;13.02;;
32329;SDS011;18807;52.434;13.238;2023-06-22T00:38:45;14.95;;;13.00;;
32329;SDS011;18807;52.434;13.238;2023-06-22T00:46:21;15.77;;;13.37;;
32329;SDS011;18807;52.434;13.238;2023-06-22T00:53:55;15.23;;;12.88;;
32329;SDS011;18807;52.434;13.238;2023-06-22T01:01:32;15.10;;;13.50;;
32329;SDS011;18807;52.434;13.238;2023-06-22T01:09:08;17.58;;;14.88;;
32329;SDS011;18807;52.434;13.238;2023-06-22T01:16:49;17.10;;;14.65;;
32329;SDS011;18807;52.434;13.238;2023-06-22T01:24:28;17.52;;;14.80;;
32329;SDS011;18807;52.434;13.238;2023-06-22T01:32:09;16.40;;;13.82;;
32329;SDS011;18807;52.434;13.238;2023-06-22T01:39:45;15.88;;;14.05;;
32329;SDS011;18807;52.434;13.238;2023-06-22T01:47:20;15.87;;;13.23;;
32329;SDS011;18807;52.434;13.238;2023-06-22T01:54:56;22.80;;;16.63;;
32329;SDS011;18807;52.434;13.238;2023-06-22T02:02:33;21.50;;;14.82;;
32329;SDS011;18807;52.434;13.238;2023-06-22T02:10:16;18.80;;;14.43;;
32329;SDS011;18807;52.434;13.238;2023-06-22T02:17:55;23.90;;;14.98;;
32329;SDS011;18807;52.434;13.238;2023-06-22T02:25:29;20.95;;;14.13;;
32329;SDS011;18807;52.434;13.238;2023-06-22T02:33:05;23.83;;;15.87;;
32329;SDS011;18807;52.434;13.238;2023-06-22T02:40:39;22.42;;;15.65;;
32329;SDS011;18807;52.434;13.238;2023-06-22T02:48:15;17.20;;;13.80;;
32329;SDS011;18807;52.434;13.238;2023-06-22T02:55:49;20.50;;;15.80;;
32329;SDS011;18807;52.434;13.238;2023-06-22T03:03:41;16.05;;;14.05;;
32329;SDS011;18807;52.434;13.238;2023-06-22T03:11:15;14.90;;;13.38;;
32329;SDS011;18807;52.434;13.238;2023-06-22T03:18:51;18.67;;;15.03;;
32329;SDS011;18807;52.434;13.238;2023-06-22T03:26:25;14.88;;;13.30;;
32329;SDS011;18807;52.434;13.238;2023-06-22T03:34:01;17.03;;;15.03;;
32329;SDS011;18807;52.434;13.238;2023-06-22T03:41:35;13.40;;;11.43;;
32329;SDS011;18807;52.434;13.238;2023-06-22T03:49:11;15.63;;;13.57;;
32329;SDS011;18807;52.434;13.238;2023-06-22T03:56:45;17.02;;;13.27;;
32329;SDS011;18807;52.434;13.238;2023-06-22T04:04:21;16.93;;;13.63;;
32329;SDS011;18807;52.434;13.238;2023-06-22T04:11:55;12.90;;;11.57;;
32329;SDS011;18807;52.434;13.238;2023-06-22T04:19:30;15.67;;;12.40;;
32329;SDS011;18807;52.434;13.238;2023-06-22T04:27:04;14.75;;;11.57;;
32329;SDS011;18807;52.434;13.238;2023-06-22T04:34:40;21.50;;;15.48;;
32329;SDS011;18807;52.434;13.238;2023-06-22T04:42:14;15.40;;;11.95;;
32329;SDS011;18807;52.434;13.238;2023-06-22T04:49:50;14.20;;;12.33;;
32329;SDS011;18807;52.434;13.238;2023-06-22T04:57:24;14.85;;;10.95;;
32329;SDS011;18807;52.434;13.238;2023-06-22T05:05:07;13.55;;;11.55;;
32329;SDS011;18807;52.434;13.238;2023-06-22T05:12:46;14.40;;;11.32;;
32329;SDS011;18807;52.434;13.238;2023-06-22T05:20:21;11.27;;;9.30;;
32329;SDS011;18807;52.434;13.238;2023-06-22T05:27:57;10.45;;;8.75;;
32329;SDS011;18807;52.434;13.238;2023-06-22T05:35:33;9.52;;;8.52;;
32329;SDS011;18807;52.434;13.238;2023-06-22T05:43:07;9.25;;;7.82;;
32329;SDS011;18807;52.434;13.238;2023-06-22T05:50:43;9.33;;;7.70;;
32329;SDS011;18807;52.434;13.238;2023-06-22T05:58:20;9.15;;;8.05;;
32329;SDS011;18807;52.434;13.238;2023-06-22T06:05:55;10.25;;;8.18;;
32329;SDS011;18807;52.434;13.238;2023-06-22T06:13:29;9.45;;;8.40;;
32329;SDS011;18807;52.434;13.238;2023-06-22T06:21:05;9.13;;;8.13;;
32329;SDS011;18807;52.434;13.238;2023-06-22T06:28:39;11.05;;;8.43;;
32329;SDS011;18807;52.434;13.238;2023-06-22T06:36:15;9.40;;;6.53;;
32329;SDS011;18807;52.434;13.238;2023-06-22T06:43:48;7.80;;;6.15;;
32329;SDS011;18807;52.434;13.238;2023-06-22T06:51:41;5.72;;;5.13;;
32329;SDS011;18807;52.434;13.238;2023-06-22T06:59:15;5.95;;;5.20;;
32329;SDS011;18807;52.434;13.238;2023-06-22T07:06:50;5.80;;;4.87;;
32329;SDS011;18807;52.434;13.238;2023-06-22T07:14:42;6.38;;;5.47;;
32329;SDS011;18807;52.434;13.238;2023-06-22T07:22:18;8.23;;;4.77;;
32329;SDS011;18807;52.434;13.238;2023-06-22T07:29:52;4.78;;;3.78;;
32329;SDS011;18807;52.434;13.238;2023-06-22T07:37:29;7.10;;;4.10;;
32329;SDS011;18807;52.434;13.238;2023-06-22T07:45:03;7.43;;;4.28;;
32329;SDS011;18807;52.434;13.238;2023-06-22T07:52:39;8.93;;;4.15;;
32329;SDS011;18807;52.434;13.238;2023-06-22T08:00:13;4.32;;;3.60;;
32329;SDS011;18807;52.434;13.238;2023-06-22T08:07:50;3.53;;;3.22;;
32329;SDS011;18807;52.434;13.238;2023-06-22T08:15:41;4.45;;;3.80;;
32329;SDS011;18807;52.434;13.238;2023-06-22T08:23:16;4.13;;;2.63;;
32329;SDS011;18807;52.434;13.238;2023-06-22T08:30:51;7.78;;;4.05;;
32329;SDS011;18807;52.434;13.238;2023-06-22T08:38:26;4.40;;;3.73;;
32329;SDS011;18807;52.434;13.238;2023-06-22T08:46:01;5.97;;;3.92;;
32329;SDS011;18807;52.434;13.238;2023-06-22T08:53:37;5.05;;;3.97;;
32329;SDS011;18807;52.434;13.238;2023-06-22T09:01:11;4.70;;;3.80;;
32329;SDS011;18807;52.434;13.238;2023-06-22T09:08:47;5.00;;;3.60;;
32329;SDS011;18807;52.434;13.238;2023-06-22T09:16:21;5.30;;;4.10;;
32329;SDS011;18807;52.434;13.238;2023-06-22T09:23:57;5.38;;;4.45;;
32329;SDS011;18807;52.434;13.238;2023-06-22T09:31:31;7.57;;;5.18;;
32329;SDS011;18807;52.434;13.238;2023-06-22T09:39:07;5.30;;;4.78;;
32329;SDS011;18807;52.434;13.238;2023-06-22T09:46:41;4.88;;;4.25;;
32329;SDS011;18807;52.434;13.238;2023-06-22T09:54:16;6.13;;;5.00;;
32329;SDS011;18807;52.434;13.238;2023-06-22T10:01:50;4.93;;;4.38;;
32329;SDS011;18807;52.434;13.238;2023-06-22T10:09:25;5.57;;;4.47;;
32329;SDS011;18807;52.434;13.238;2023-06-22T10:16:59;4.97;;;4.47;;
32329;SDS011;18807;52.434;13.238;2023-06-22T10:24:35;7.47;;;4.60;;
32329;SDS011;18807;52.434;13.238;2023-06-22T10:32:10;5.80;;;4.72;;
32329;SDS011;18807;52.434;13.238;2023-06-22T10:39:46;4.97;;;4.47;;
32329;SDS011;18807;52.434;13.238;2023-06-22T10:47:20;4.88;;;3.97;;
32329;SDS011;18807;52.434;13.238;2023-06-22T10:54:55;5.57;;;5.07;;
32329;SDS011;18807;52.434;13.238;2023-06-22T11:02:29;4.72;;;4.30;;
32329;SDS011;18807;52.434;13.238;2023-06-22T11:10:06;5.47;;;4.32;;
32329;SDS011;18807;52.434;13.238;2023-06-22T11:17:41;5.40;;;4.57;;
32329;SDS011;18807;52.434;13.238;2023-06-22T11:32:51;6.13;;;4.93;;
32329;SDS011;18807;52.434;13.238;2023-06-22T11:40:26;4.67;;;4.27;;
32329;SDS011;18807;52.434;13.238;2023-06-22T11:48:00;5.07;;;4.60;;
32329;SDS011;18807;52.434;13.238;2023-06-22T11:55:36;5.00;;;4.50;;
32329;SDS011;18807;52.434;13.238;2023-06-22T12:03:10;5.10;;;4.60;;
32329;SDS011;18807;52.434;13.238;2023-06-22T12:11:08;8.15;;;5.07;;
32329;SDS011;18807;52.434;13.238;2023-06-22T12:18:42;7.22;;;4.70;;
32329;SDS011;18807;52.434;13.238;2023-06-22T12:26:17;5.73;;;4.90;;
32329;SDS011;18807;52.434;13.238;2023-06-22T12:33:51;5.13;;;4.72;;
32329;SDS011;18807;52.434;13.238;2023-06-22T12:41:26;5.30;;;4.80;;
32329;SDS011;18807;52.434;13.238;2023-06-22T12:49:00;5.30;;;4.80;;
32329;SDS011;18807;52.434;13.238;2023-06-22T12:56:36;6.57;;;5.73;;
32329;SDS011;18807;52.434;13.238;2023-06-22T13:04:10;5.63;;;5.13;;
32329;SDS011;18807;52.434;13.238;2023-06-22T13:11:48;5.68;;;5.05;;
32329;SDS011;18807;52.434;13.238;2023-06-22T13:19:22;6.97;;;5.18;;
32329;SDS011;18807;52.434;13.238;2023-06-22T13:42:07;6.75;;;6.10;;
32329;SDS011;18807;52.434;13.238;2023-06-22T13:49:41;6.60;;;5.43;;
32329;SDS011;18807;52.434;13.238;2023-06-22T13:57:17;6.03;;;5.47;;
32329;SDS011;18807;52.434;13.238;2023-06-22T14:04:51;4.95;;;4.47;;
32329;SDS011;18807;52.434;13.238;2023-06-22T14:12:27;6.32;;;5.72;;
32329;SDS011;18807;52.434;13.238;2023-06-22T14:20:01;7.15;;;6.28;;
32329;SDS011;18807;52.434;13.238;2023-06-22T14:27:39;8.63;;;5.93;;
32329;SDS011;18807;52.434;13.238;2023-06-22T14:35:13;6.25;;;5.57;;
32329;SDS011;18807;52.434;13.238;2023-06-22T14:42:48;8.20;;;6.63;;
32329;SDS011;18807;52.434;13.238;2023-06-22T14:50:22;6.28;;;5.65;;
32329;SDS011;18807;52.434;13.238;2023-06-22T14:57:58;6.15;;;5.55;;
32329;SDS011;18807;52.434;13.238;2023-06-22T15:05:32;5.53;;;4.93;;
32329;SDS011;18807;52.434;13.238;2023-06-22T15:13:08;5.13;;;4.63;;
32329;SDS011;18807;52.434;13.238;2023-06-22T15:20:42;6.15;;;5.55;;
32329;SDS011;18807;52.434;13.238;2023-06-22T15:28:20;6.25;;;5.75;;
32329;SDS011;18807;52.434;13.238;2023-06-22T15:35:54;7.30;;;5.90;;
32329;SDS011;18807;52.434;13.238;2023-06-22T15:43:30;8.38;;;5.13;;
32329;SDS011;18807;52.434;13.238;2023-06-22T15:51:04;5.97;;;5.25;;
32329;SDS011;18807;52.434;13.238;2023-06-22T15:58:39;6.13;;;5.53;;
32329;SDS011;18807;52.434;13.238;2023-06-22T16:06:13;5.47;;;4.95;;
32329;SDS011;18807;52.434;13.238;2023-06-22T16:13:48;6.32;;;5.68;;
32329;SDS011;18807;52.434;13.238;2023-06-22T16:21:22;6.03;;;5.43;;
32329;SDS011;18807;52.434;13.238;2023-06-22T16:28:57;8.60;;;5.47;;
32329;SDS011;18807;52.434;13.238;2023-06-22T16:36:31;7.15;;;5.68;;
32329;SDS011;18807;52.434;13.238;2023-06-22T16:51:41;5.93;;;5.43;;
32329;SDS011;18807;52.434;13.238;2023-06-22T16:59:16;6.65;;;6.05;;
32329;SDS011;18807;52.434;13.238;2023-06-22T17:06:53;6.45;;;5.30;;
32329;SDS011;18807;52.434;13.238;2023-06-22T17:14:31;7.40;;;5.78;;
32329;SDS011;18807;52.434;13.238;2023-06-22T17:22:05;6.68;;;5.57;;
32329;SDS011;18807;52.434;13.238;2023-06-22T17:29:40;6.25;;;5.70;;
32329;SDS011;18807;52.434;13.238;2023-06-22T17:37:14;6.68;;;5.88;;
32329;SDS011;18807;52.434;13.238;2023-06-22T17:44:49;7.10;;;5.80;;
32329;SDS011;18807;52.434;13.238;2023-06-22T17:52:23;6.50;;;5.18;;
32329;SDS011;18807;52.434;13.238;2023-06-22T18:00:02;7.28;;;5.93;;
32329;SDS011;18807;52.434;13.238;2023-06-22T18:07:38;6.75;;;5.97;;
32329;SDS011;18807;52.434;13.238;2023-06-22T18:15:13;5.83;;;5.23;;
32329;SDS011;18807;52.434;13.238;2023-06-22T18:22:47;5.95;;;5.35;;
32329;SDS011;18807;52.434;13.238;2023-06-22T18:30:23;6.18;;;5.57;;
32329;SDS011;18807;52.434;13.238;2023-06-22T18:37:58;6.75;;;6.13;;
32329;SDS011;18807;52.434;13.238;2023-06-22T18:45:35;6.22;;;5.63;;
32329;SDS011;18807;52.434;13.238;2023-06-22T18:53:15;7.82;;;5.82;;
32329;SDS011;18807;52.434;13.238;2023-06-22T19:00:52;6.30;;;5.70;;
32329;SDS011;18807;52.434;13.238;2023-06-22T19:08:27;6.28;;;5.65;;
32329;SDS011;18807;52.434;13.238;2023-06-22T19:16:23;6.40;;;5.75;;
32329;SDS011;18807;52.434;13.238;2023-06-22T19:24:02;6.47;;;5.88;;
32329;SDS011;18807;52.434;13.238;2023-06-22T19:31:38;5.97;;;5.38;;
32329;SDS011;18807;52.434;13.238;2023-06-22T19:39:17;9.23;;;6.03;;
32329;SDS011;18807;52.434;13.238;2023-06-22T19:46:53;5.87;;;5.37;;
32329;SDS011;18807;52.434;13.238;2023-06-22T19:54:27;7.03;;;6.05;;
32329;SDS011;18807;52.434;13.238;2023-06-22T20:02:02;7.77;;;5.80;;
32329;SDS011;18807;52.434;13.238;2023-06-22T20:09:40;10.73;;;6.55;;
32329;SDS011;18807;52.434;13.238;2023-06-22T20:17:16;7.10;;;6.43;;
32329;SDS011;18807;52.434;13.238;2023-06-22T20:24:53;12.60;;;7.22;;
32329;SDS011;18807;52.434;13.238;2023-06-22T20:32:31;12.15;;;8.20;;
32329;SDS011;18807;52.434;13.238;2023-06-22T20:40:06;10.80;;;7.97;;
32329;SDS011;18807;52.434;13.238;2023-06-22T20:47:42;12.32;;;8.02;;
32329;SDS011;18807;52.434;13.238;2023-06-22T20:55:17;12.38;;;7.78;;
32329;SDS011;18807;52.434;13.238;2023-06-22T21:02:54;8.85;;;6.93;;
32329;SDS011;18807;52.434;13.238;2023-06-22T21:10:31;8.27;;;6.53;;
32329;SDS011;18807;52.434;13.238;2023-06-22T21:18:07;9.57;;;8.03;;
32329;SDS011;18807;52.434;13.238;2023-06-22T21:25:41;10.95;;;6.90;;
32329;SDS011;18807;52.434;13.238;2023-06-22T21:33:16;13.68;;;9.60;;
32329;SDS011;18807;52.434;13.238;2023-06-22T21:40:50;13.85;;;10.73;;
32329;SDS011;18807;52.434;13.238;2023-06-22T21:48:26;12.90;;;9.60;;
32329;SDS011;18807;52.434;13.238;2023-06-22T21:56:00;10.13;;;9.13;;
32329;SDS011;18807;52.434;13.238;2023-06-22T22:03:35;13.40;;;11.30;;
32329;SDS011;18807;52.434;13.238;2023-06-22T22:11:09;13.48;;;12.07;;
32329;SDS011;18807;52.434;13.238;2023-06-22T22:18:45;15.70;;;13.87;;
32329;SDS011;18807;52.434;13.238;2023-06-22T22:26:37;17.02;;;15.13;;
32329;SDS011;18807;52.434;13.238;2023-06-22T22:34:13;18.23;;;16.23;;
32329;SDS011;18807;52.434;13.238;2023-06-22T22:41:47;20.77;;;16.52;;
32329;SDS011;18807;52.434;13.238;2023-06-22T22:49:23;17.23;;;14.57;;
32329;SDS011;18807;52.434;13.238;2023-06-22T22:56:58;17.77;;;15.25;;
32329;SDS011;18807;52.434;13.238;2023-06-22T23:04:33;16.67;;;14.27;;
32329;SDS011;18807;52.434;13.238;2023-06-22T23:12:08;16.35;;;13.88;;
32329;SDS011;18807;52.434;13.238;2023-06-22T23:19:43;13.90;;;12.43;;
32329;SDS011;18807;52.434;13.238;2023-06-22T23:27:19;13.23;;;11.85;;
32329;SDS011;18807;52.434;13.238;2023-06-22T23:34:54;12.73;;;11.27;;
32329;SDS011;18807;52.434;13.238;2023-06-22T23:42:28;15.18;;;11.80;;
32329;SDS011;18807;52.434;13.238;2023-06-22T23:50:05;13.25;;;11.27;;
32329;SDS011;18807;52.434;13.238;2023-06-22T23:57:39;14.50;;;10.35;;
